• Join FlightAware (Why Join?)
  • Login
  • US Flag 
08:19PM EDT


 

Airport Tracker/Info


-or-


 

Live Flight TrackerFlight Track Log ✈ UAL4206 ✈ 27-Jun-2013 ✈ KSAT - KDEN

Flight Track Log - Related Links

Times and Time Zones

All times are in EDT time to prevent confusion due to time zone crossing. See the UAL4206 flight status page for this flight to view local times or setup timezone preferences in your user account.

Time Position Orientation Groundspeed Altitude Reporting Facility
EDT Latitude Longitude Course Direction KTS MPH feet Rate Location/Type
08:56PM 29.5178 -98.4550 10° North 162 186 1,500  Level Houston Center
08:57PM 29.4933 -98.4194 128° Southeast 184 212 2,900 2,040 Climbing Houston Center
08:58PM 29.5200 -98.3658 60° Northeast 233 268 5,300 2,220 Climbing Houston Center
08:59PM 29.6131 -98.3689 358° North 245 282 8,200 2,220 Climbing Houston Center
09:00PM 29.9688 -98.4062 10° North  Level FlightAware Approximate
09:00PM 29.6789 -98.3725 357° North 239 275 10,700  Level Houston Center
09:01PM 30.0771 -98.3846 10° North  Level FlightAware Approximate
09:01PM 29.7444 -98.3761 357° North 237 273 12,600  Level Houston Center
09:02PM 29.8158 -98.4097 338° Northwest 255 293 14,800 1,860 Climbing Houston Center
09:03PM 29.8811 -98.4444 335° Northwest 259 298 16,500 1,620 Climbing Houston Center
09:04PM 29.9528 -98.4828 335° Northwest 251 289 18,200 1,500 Climbing Houston Center
09:05PM 30.0231 -98.5194 336° Northwest 272 313 19,600 1,380 Climbing Houston Center
09:06PM 30.0953 -98.5586 335° Northwest 285 328 21,100 1,500 Climbing Houston Center
09:07PM 30.1761 -98.6017 335° Northwest 296 341 22,700 1,440 Climbing Houston Center
09:09PM 30.2539 -98.6428 335° Northwest 306 352 24,100 1,320 Climbing Houston Center
09:10PM 30.3342 -98.6858 335° Northwest 308 354 25,500 1,380 Climbing Houston Center
09:11PM 30.4158 -98.7292 335° Northwest 312 359 27,000 1,320 Climbing Houston Center
09:12PM 30.4950 -98.7719 335° Northwest 318 366 28,300 1,260 Climbing Houston Center
09:13PM 30.5781 -98.8161 335° Northwest 323 372 29,700 1,200 Climbing Houston Center
09:14PM 30.6619 -98.8611 335° Northwest 326 375 30,800 1,020 Climbing Houston Center
09:15PM 30.7472 -98.9078 335° Northwest 333 383 31,900 1,020 Climbing Houston Center
09:16PM 30.8331 -98.9536 335° Northwest 335 386 32,900 960 Climbing Houston Center
09:17PM 30.9194 -99.0006 335° Northwest 339 390 33,900 840 Climbing Houston Center
09:18PM 31.0083 -99.0483 335° Northwest 344 396 34,700 660 Climbing Houston Center
09:19PM 31.0978 -99.0972 335° Northwest 350 403 35,300 420 Climbing Houston Center
09:20PM 31.1908 -99.1486 335° Northwest 362 417 35,600 240 Climbing Houston Center
09:21PM 31.2886 -99.2011 335° Northwest 373 429 35,900 180 Climbing Houston Center
09:22PM 31.3867 -99.2567 334° Northwest 387 445 36,000  Climbing Houston Center
09:23PM 31.5092 -99.3228 335° Northwest 407 468 36,000  Level Houston Center
09:24PM 31.6164 -99.3803 335° Northwest 416 479 36,000  Level Houston Center
09:25PM 31.7247 -99.4397 335° Northwest 422 486 36,000  Level Houston Center
09:26PM 31.8342 -99.5008 335° Northwest 429 494 36,000  Level Houston Center
09:27PM 31.9369 -99.5578 335° Northwest 422 486 36,000  Level Houston Center
09:28PM 32.0408 -99.6147 335° Northwest 414 476 36,000  Level Houston Center
09:29PM 32.1467 -99.6744 334° Northwest 398 458 36,000  Level Houston Center
09:30PM 32.2439 -99.7300 334° Northwest 386 444 36,000  Level Houston Center
09:31PM 32.3392 -99.7833 335° Northwest 377 434 36,000  Level Houston Center
09:32PM 32.4425 -99.8431 334° Northwest 373 429 36,000  Level Fort Worth Center
09:33PM 32.5331 -99.9022 331° Northwest 363 418 36,000  Level Fort Worth Center
09:34PM 32.6278 -99.9614 332° Northwest 369 425 36,000  Level Fort Worth Center
09:35PM 32.7247 -100.0186 334° Northwest 386 444 36,000  Level Fort Worth Center
09:36PM 32.8256 -100.0883 330° Northwest 385 443 36,000  Level Fort Worth Center
09:37PM 32.9183 -100.1481 332° Northwest 380 437 36,000  Level Fort Worth Center
09:38PM 33.0089 -100.2053 332° Northwest 375 432 36,000  Level Fort Worth Center
09:39PM 33.1014 -100.2653 331° Northwest 375 432 36,000  Level Fort Worth Center
09:40PM 33.1939 -100.3253 332° Northwest 375 432 36,000  Level Fort Worth Center
09:41PM 33.2864 -100.3856 331° Northwest 375 432 36,000  Level Fort Worth Center
09:42PM 33.3789 -100.4458 331° Northwest 375 432 36,000  Level Fort Worth Center
09:43PM 33.4714 -100.5061 331° Northwest 375 432 36,000  Level Fort Worth Center
09:44PM 33.5658 -100.5719 330° Northwest 370 426 36,000  Level Fort Worth Center
09:45PM 33.6581 -100.6325 331° Northwest 370 426 36,000  Level Fort Worth Center
09:46PM 33.7525 -100.6961 331° Northwest 376 433 36,000  Level Fort Worth Center
09:48PM 33.9119 -100.7975 332° Northwest 382 440 36,000  Level Albuquerque Center
09:49PM 34.0056 -100.8608 331° Northwest 385 443 36,000  Level Albuquerque Center
09:50PM 34.0983 -100.9233 331° Northwest 384 442 36,000  Level Albuquerque Center
09:51PM 34.1925 -100.9847 332° Northwest 385 443 36,000  Level Albuquerque Center
09:52PM 34.2861 -101.0489 330° Northwest 386 444 36,000  Level Albuquerque Center
09:53PM 34.3811 -101.1111 332° Northwest 389 448 36,000  Level Albuquerque Center
09:54PM 34.4756 -101.1769 330° Northwest 390 449 36,000  Level Albuquerque Center
09:55PM 34.5700 -101.2417 331° Northwest 390 449 36,000  Level Albuquerque Center
09:56PM 34.6850 -101.3197 331° Northwest 392 451 36,000  Level Albuquerque Center
09:57PM 34.7800 -101.3844 331° Northwest 393 452 36,000  Level Albuquerque Center
09:58PM 34.8764 -101.4511 330° Northwest 396 456 36,000  Level Albuquerque Center
09:59PM 34.9753 -101.5197 330° Northwest 398 458 36,000  Level Albuquerque Center
10:00PM 35.0692 -101.6011 325° Northwest 410 472 36,000  Level Albuquerque Center
10:01PM 35.1575 -101.6786 324° Northwest 411 473 36,000  Level Albuquerque Center
10:02PM 35.2528 -101.7664 323° Northwest 422 486 36,000  Level Albuquerque Center
10:03PM 35.3706 -101.8692 325° Northwest 436 502 36,000  Level Albuquerque Center
10:04PM 35.4694 -101.9572 324° Northwest 439 505 36,000  Level Albuquerque Center
10:05PM 35.5581 -102.0400 323° Northwest 437 503 36,000  Level Albuquerque Center
10:06PM 35.6539 -102.1356 321° Northwest 442 509 36,000  Level Albuquerque Center
10:07PM 35.7436 -102.2383 317° Northwest 443 510 36,000  Level Albuquerque Center
10:08PM 35.8328 -102.3433 316° Northwest 443 510 36,000  Level Albuquerque Center
10:09PM 35.9375 -102.4664 316° Northwest 436 502 36,000  Level Albuquerque Center
10:10PM 36.0275 -102.5606 320° Northwest 429 494 36,000  Level Albuquerque Center
10:11PM 36.1303 -102.6239 334° Northwest 419 482 36,000  Level Albuquerque Center
10:12PM 36.2422 -102.6503 349° North 411 473 36,000  Level Albuquerque Center
10:14PM 36.3550 -102.6594 356° North 406 467 36,000  Level Albuquerque Center
10:15PM 36.4639 -102.6714 355° North 397 457 36,000  Level Albuquerque Center
10:16PM 36.5711 -102.6817 356° North 389 448 36,000  Level Albuquerque Center
10:17PM 36.6856 -102.6939 355° North 384 442 36,000  Level Albuquerque Center
10:18PM 36.7864 -102.7042 355° North 381 438 36,000  Level Albuquerque Center
10:19PM 36.9011 -102.7164 355° North 373 429 36,000  Level Albuquerque Center
10:20PM 37.0011 -102.7269 355° North 373 429 36,000  Level Albuquerque Center
10:21PM 37.1158 -102.7386 355° North 371 427 36,000 -360 Level Albuquerque Center
10:22PM 37.2144 -102.7494 355° North 371 427 35,300 -840 Descending Albuquerque Center
10:23PM 37.3128 -102.8011 337° Northwest 394 453 34,400 -660 Descending Albuquerque Center
10:24PM 37.4250 -102.8742 333° Northwest 408 470 34,000 -240 Descending Denver Center
10:25PM 37.5150 -102.9325 333° Northwest 392 451 34,000 -180 Level Denver Center
10:26PM 37.6139 -103.0000 332° Northwest 370 426 33,700 -1,080 Descending Denver Center
10:27PM 37.7036 -103.0594 332° Northwest 378 435 31,900 -1,800 Descending Denver Center
10:28PM 37.7986 -103.1225 332° Northwest 399 459 30,000 -1,800 Descending Denver Center
10:29PM 37.9044 -103.1947 332° Northwest 389 448 28,300 -1,020 Descending Denver Center
10:30PM 37.9872 -103.2500 332° Northwest 356 410 28,000 -180 Descending Denver Center
10:31PM 38.0733 -103.3072 332° Northwest 316 364 28,000 -60 Level Denver Center
10:32PM 38.1478 -103.3578 332° Northwest 319 367 27,900 -540 Descending Denver Center
10:33PM 38.2464 -103.4250 332° Northwest 356 410 26,900 -1,020 Descending Denver Center
10:34PM 38.3339 -103.4847 332° Northwest 370 426 25,900 -1,080 Descending Denver Center
10:35PM 38.4297 -103.5500 332° Northwest 355 409 24,700 -1,020 Descending Denver Center
10:36PM 38.5114 -103.6061 332° Northwest 349 402 23,800 -1,080 Descending Denver Center
10:37PM 38.6072 -103.6708 332° Northwest 350 403 22,600 -1,080 Descending Denver Center
10:38PM 38.6875 -103.7272 331° Northwest 345 397 21,600 -900 Descending Denver Center
10:39PM 38.7639 -103.7794 332° Northwest 329 379 20,800 -780 Descending Denver Center
10:40PM 38.8494 -103.8383 332° Northwest 315 362 20,100 -420 Descending Denver Center
10:41PM 38.9278 -103.8922 332° Northwest 316 364 20,000 -60 Descending Denver Center
10:42PM 39.0042 -103.9442 332° Northwest 312 359 20,000  Level Denver Center
10:43PM 39.0819 -104.0000 331° Northwest 318 366 20,000  Level Denver Center
10:44PM 39.1600 -104.0536 332° Northwest 319 367 20,000 -480 Level Denver Center
10:45PM 39.2428 -104.1222 327° Northwest 333 383 19,100 -1,020 Descending Denver Center
10:46PM 39.3153 -104.1931 323° Northwest 305 351 18,000 -900 Descending Denver Center
10:47PM 39.3842 -104.2542 326° Northwest 301 346 17,300 -840 Descending Denver Center
10:48PM 39.4506 -104.3189 323° Northwest 299 344 16,300 -1,080 Descending Denver Center
10:49PM 39.5206 -104.3833 325° Northwest 289 333 15,200 -1,080 Descending Denver Center
10:50PM 39.5861 -104.4467 323° Northwest 298 343 14,200 -1,080 Descending Denver Center
10:51PM 39.6589 -104.5147 324° Northwest 300 345 13,100 -1,080 Descending Denver Center
10:52PM 39.7081 -104.5922 310° West 290 334 12,000 -1,080 Descending Denver Center
10:53PM 39.7456 -104.6833 298° West 287 330 11,000 -660 Descending Denver Center
10:55PM 39.7447 -104.7858 269° West 284 327 10,700 -780 Descending Denver Center
10:56PM 39.7558 -104.8803 279° West 246 283 9,500 -1,140 Descending Denver Center
10:57PM 39.8125 -104.8669 10° North 216 249 8,400 -1,080 Descending Denver Center